Hobart Airport
YMHB : now visible

Airfield :











YOU CAN JOIN US ON...

 
LOGIN :

Register | Disclaimer

   EN    FR    IT 

 









Legend :    VFR   Marginal VFR   IFR   Intensive IFR   Very Intensive IFR
Visi :
Ceiling :
>= 8 km
>= 3000ft
5 to 8 km
1000 to 3000 ft
1500m to 5 km
500 to 1000 ft
800 to 1500m
200 to 500 ft
< 800m
< 200 ft
Symbols :   Thunderstorms  Fog  Heavy snow  Heavy precipitations  Wind > 20 kt






- Airport Elevation : 13 ft
- IATA code : HBA


YMHB - Hobart

CURRENT METAR :
  • 150500Z 25013KT 9999 FEW035 SCT043 13/03 Q1004

EXPIRED METARs :
  • 150430Z 23019G30KT 9999 VCSH FEW035 BKN038 12/03 Q1004
  • 150418Z 21017G27KT 9999 VCSH FEW035 BKN041 12/04 Q1004
  • 150400Z 28018KT 9999 VCSH FEW034 BKN040 BKN075 14/03 Q1003
  • 150330Z 28016KT 9999 VCSH SCT046 SCT070 15/03 Q1003 RF00.0/000.0
  • 150300Z 28023KT 9999 VCSH FEW046 14/02 Q1002
  • 150230Z 26020KT 9999 -SHRA SCT045 15/02 Q1002 RF00.0/000.0

TAF AMD TAF YMHB
Valid from the 15 at 04:00 until the 16 at 06:00 UTC


150448Z 1504/1606 24020G30KT 9999 -SHRA SCT040
FM150800 28012KT 9999 NSW SCT045
FM152000 32009KT 9999 SCT030
YMMM FIR / Oceania



MET'MAP, your aeronautical weather chart ! - Copyright ORBIFLY December 2007 - Disclaimer

ORBIFLY MET'MAP TEAM :

Programming & Development : Alexandra Zaïnal
Concept & original design : Baudouin d'Aumeries
Assistance for programming : Marc-Olivier Méhu
Technical & hardware support : Manuel Goepfert

Contact : metmap@orbifly.com




SOURCES & CREDITS :

   NOAA       Earth
Advisory